Cathma — PJTL — position and weather

sailwx.info

Track history (hours):
 
Tides and Currents Weather Stations Pressure Air Temp Water Temp Dewpoint Dewpoint Depression Visibility Wind Speed Wind Dir Waves Ship Positions

Cathma

Last reported at 2017-May-28 02:00 UTC. Time now 2017-May-29 09:40 UTC.
Position N 60°17' E 019°02'.

Length 111 m; draft 6.3 m.

Type: Ship. MMSI: 306832000.

Date/timePositionNaut miles runAvg speedWind from/ knotsBaromVisibWave heightAir tempDewpointWater temp
2017-May-28 02:00N 60°17' E 019°02'4 8.7
2017-May-28 01:30N 60°13' E 019°04'4 8.5
2017-May-28 01:00N 60°10' E 019°09'4 8.8
2017-May-28 00:30N 60°06' E 019°14'4 8.8
2017-May-28 00:00N 60°03' E 019°20'4 8.8
2017-May-27 23:30N 59°59' E 019°25'4 9.0
2017-May-27 23:00N 59°56' E 019°31'4 8.8
2017-May-27 22:31N 59°53' E 019°36'4 8.7
2017-May-27 22:00N 59°49' E 019°42'5 8.6
2017-May-27 21:29N 59°46' E 019°48'5 8.8
2017-May-27 20:56N 59°42' E 019°54'228 8.0
2017-May-26 16:28N 56°15' E 016°56'6 7.9
2017-May-26 15:42N 56°10' E 016°51'1 7.9
2017-May-26 15:30N 56°08' E 016°50'4 7.6
2017-May-26 15:00N 56°05' E 016°47'8 7.6
2017-May-26 14:00N 56°01' E 016°35'4 7.6
2017-May-26 13:30N 55°59' E 016°29'4 7.6
2017-May-26 13:01N 55°57' E 016°24'4 7.4
2017-May-26 12:31N 55°55' E 016°18'3 6.5
2017-May-26 12:01N 55°54' E 016°13'4 8.5
2017-May-26 11:31N 55°51' E 016°06'5 9.5
2017-May-26 11:00N 55°49' E 015°59'5 9.6
2017-May-26 10:31N 55°47' E 015°51'5 9.7
2017-May-26 10:01N 55°44' E 015°44'5 9.8
2017-May-26 09:31N 55°42' E 015°36'5 9.7
2017-May-26 09:01N 55°40' E 015°29'5 9.7
2017-May-26 08:30N 55°37' E 015°21'5 9.9
2017-May-26 08:01N 55°35' E 015°14'5 9.9
2017-May-26 07:31N 55°32' E 015°06'510.0
2017-May-26 07:00N 55°30' E 014°58'510.1
2017-May-26 06:30N 55°27' E 014°51'510.0
2017-May-26 06:00N 55°25' E 014°43'510.7
2017-May-26 05:30N 55°21' E 014°36'510.9
2017-May-26 05:00N 55°17' E 014°29'510.5
2017-May-26 04:30N 55°13' E 014°24'5 9.9
2017-May-26 04:00N 55°11' E 014°16'4710.5
2017-May-25 23:33N 55°15' E 012°54'110.6
2017-May-25 23:30N 55°15' E 012°53'510.6
2017-May-25 23:00N 55°17' E 012°44'5 9.4
2017-May-25 22:31N 55°19' E 012°38'510.3
2017-May-25 22:01N 55°25' E 012°40'510.4
2017-May-25 21:31N 55°30' E 012°41'510.5
2017-May-25 21:01N 55°35' E 012°42'510.8
2017-May-25 20:31N 55°40' E 012°41'510.7
2017-May-25 20:01N 55°46' E 012°42'510.6
2017-May-25 19:31N 55°51' E 012°41'510.3
2017-May-25 19:01N 55°56' E 012°38'510.8
2017-May-25 18:31N 56°01' E 012°38'510.2
2017-May-25 18:01N 56°06' E 012°34'611.3
2017-May-25 17:31N 56°09' E 012°26'510.9
2017-May-25 17:01N 56°12' E 012°18'3810.4
2017-May-25 13:23N 56°47' E 011°51'411.0
2017-May-25 13:00N 56°51' E 011°48'510.7
2017-May-25 12:31N 56°56' E 011°45'610.7
2017-May-25 11:59N 57°01' E 011°42'510.8
2017-May-25 11:30N 57°06' E 011°38'710.2
2017-May-25 10:49N 57°12' E 011°34'310.7
2017-May-25 10:30N 57°16' E 011°32'610.9
2017-May-25 10:00N 57°21' E 011°29'511.0
2017-May-25 09:30N 57°26' E 011°25'510.1
2017-May-25 09:00N 57°30' E 011°19'510.1
2017-May-25 08:30N 57°33' E 011°12'5 9.9
2017-May-25 08:00N 57°37' E 011°06'510.4
2017-May-25 07:29N 57°40' E 010°58'510.9
2017-May-25 07:01N 57°44' E 010°51'611.0
2017-May-25 06:30N 57°47' E 010°42'612.2
2017-May-25 06:00N 57°47' E 010°31'1511.3
2017-May-25 04:42N 57°41' E 010°05'411.3
2017-May-25 04:22N 57°40' E 009°58'711.3
2017-May-25 03:42N 57°36' E 009°46'1111.1
2017-May-25 02:41N 57°30' E 009°28'310.9
2017-May-25 02:27N 57°29' E 009°24'510.7
2017-May-25 02:00N 57°27' E 009°16'710.6
2017-May-25 01:22N 57°23' E 009°06'132 9.9
2017-May-24 12:02N 55°37' E 006°44'210.8
2017-May-24 11:49N 55°35' E 006°42'510.8
2017-May-24 11:21N 55°31' E 006°37'10110.9
2017-May-24 02:01N 54°04' E 005°07'0 9.5
2017-May-24 01:58N 54°03' E 005°07'510.5
2017-May-24 01:30N 53°59' E 005°04'510.5
2017-May-24 01:00N 53°54' E 005°01'510.3
2017-May-24 00:29N 53°49' E 004°58'510.4
2017-May-24 00:01N 53°44' E 004°55'2110.1
2017-May-23 21:55N 53°24' E 004°42'4 9.5
2017-May-23 21:30N 53°21' E 004°41'1010.5
2017-May-23 20:35N 53°19' E 004°57'110.8
2017-May-23 20:29N 53°19' E 004°58'611.0
2017-May-23 19:59N 53°19' E 005°08'4 9.3
2017-May-23 19:30N 53°15' E 005°10'510.0
2017-May-23 19:00N 53°13' E 005°17'4 8.8
2017-May-23 18:30N 53°11' E 005°23'1 2.6
2017-May-23 18:00N 53°11' E 005°26'0 0.0
2017-May-23 17:30N 53°11' E 005°26'0 0.0
2017-May-23 16:57N 53°11' E 005°26'0 0.0
2017-May-23 16:30N 53°11' E 005°26'0 0.0
2017-May-23 16:00N 53°11' E 005°26'0 0.3
2017-May-23 15:30N 53°11' E 005°26'0 0.3
2017-May-23 14:59N 53°11' E 005°26'0 0.0
2017-May-23 14:29N 53°11' E 005°26'0 0.0
2017-May-23 13:29N 53°11' E 005°26'0 0.0
2017-May-23 12:59N 53°11' E 005°26'0 0.0
2017-May-23 12:28N 53°11' E 005°26'0 0.0
2017-May-23 11:58N 53°11' E 005°26'0 0.0
2017-May-23 11:28N 53°11' E 005°26'0 0.0
2017-May-23 10:58N 53°11' E 005°26'0 0.0
2017-May-23 10:30N 53°11' E 005°26'0 0.0
2017-May-23 10:00N 53°11' E 005°26'0 0.0
2017-May-23 09:30N 53°11' E 005°26'0 0.0
2017-May-23 09:00N 53°11' E 005°26'0 0.0
2017-May-23 08:29N 53°11' E 005°26'0 0.0
2017-May-23 07:59N 53°11' E 005°26'0 0.0
2017-May-23 07:29N 53°11' E 005°26'0 0.0
2017-May-23 06:59N 53°11' E 005°26'0 0.0
2017-May-23 06:29N 53°11' E 005°26'0 0.0
2017-May-23 06:00N 53°11' E 005°26'0 0.0
2017-May-23 05:30N 53°11' E 005°26'0 0.0
2017-May-23 05:00N 53°11' E 005°26'0 0.0
2017-May-23 04:30N 53°11' E 005°26'0 0.0
2017-May-23 04:00N 53°11' E 005°26'0 0.0
2017-May-23 03:30N 53°11' E 005°26'0 0.0
2017-May-23 03:00N 53°11' E 005°26'0 0.0
2017-May-23 02:30N 53°11' E 005°26'0 0.0
2017-May-23 02:00N 53°11' E 005°26'0 0.0
2017-May-23 01:30N 53°11' E 005°26'0 0.0
2017-May-23 01:00N 53°11' E 005°26'0 0.0
2017-May-23 00:30N 53°11' E 005°26'0 0.0
2017-May-23 00:00N 53°11' E 005°26'0 0.0
2017-May-22 23:30N 53°11' E 005°26'0 0.0
2017-May-22 23:00N 53°11' E 005°26'0 0.0
2017-May-22 22:30N 53°11' E 005°26'0 0.0
2017-May-22 22:00N 53°11' E 005°26'0 0.0
2017-May-22 21:30N 53°11' E 005°26'0 0.0
2017-May-22 21:00N 53°11' E 005°26'0 0.0
2017-May-22 20:30N 53°11' E 005°26'0 0.0
2017-May-22 20:00N 53°11' E 005°26'0 0.0
2017-May-22 19:30N 53°11' E 005°26'0 0.0
2017-May-22 19:00N 53°11' E 005°26'0 0.0
2017-May-22 18:30N 53°11' E 005°26'0 0.0
2017-May-22 18:00N 53°11' E 005°26'0 0.0
2017-May-22 17:30N 53°11' E 005°26'0 0.0
2017-May-22 17:00N 53°11' E 005°26'0 0.1
2017-May-22 16:30N 53°11' E 005°26'0 0.1
2017-May-22 16:00N 53°11' E 005°26'0 0.0
2017-May-22 15:30N 53°11' E 005°26'0 0.0
2017-May-22 15:00N 53°11' E 005°26'0 0.0
2017-May-22 14:00N 53°11' E 005°26'0 0.0
2017-May-22 13:30N 53°11' E 005°26'0 0.0
2017-May-22 13:00N 53°11' E 005°26'0 0.0
2017-May-22 12:30N 53°11' E 005°26'0 0.0
2017-May-22 12:00N 53°11' E 005°26'0 0.0
2017-May-22 11:30N 53°11' E 005°26'0 0.0
2017-May-22 11:00N 53°11' E 005°26'0 0.0
2017-May-22 10:30N 53°11' E 005°26'0 0.0
2017-May-22 10:00N 53°11' E 005°26'0 0.0
2017-May-22 09:30N 53°11' E 005°26'0 0.0
2017-May-22 09:00N 53°11' E 005°26'0 0.0
2017-May-22 08:30N 53°11' E 005°26'0 0.0
2017-May-22 08:00N 53°11' E 005°26'0 0.0
2017-May-22 07:30N 53°11' E 005°26'0 0.0
2017-May-22 07:00N 53°11' E 005°26'0 0.0
2017-May-22 06:30N 53°11' E 005°26'0 0.2
2017-May-22 06:00N 53°11' E 005°26'0 0.0
2017-May-22 05:30N 53°11' E 005°26'0 0.0
2017-May-22 05:00N 53°11' E 005°26'0 0.0
2017-May-22 04:30N 53°11' E 005°26'0 0.0
2017-May-22 04:00N 53°11' E 005°26'0 0.0
2017-May-22 03:30N 53°11' E 005°26'0 0.0
2017-May-22 03:00N 53°11' E 005°26'0 0.0
2017-May-22 02:30N 53°11' E 005°26'0 0.0
2017-May-22 02:00N 53°11' E 005°26'0 0.0
2017-May-22 01:30N 53°11' E 005°26'0 0.0
2017-May-22 01:00N 53°11' E 005°26'0 0.0
2017-May-22 00:30N 53°11' E 005°26'0 0.0
2017-May-22 00:00N 53°11' E 005°26'0 0.0
2017-May-21 23:30N 53°11' E 005°26'0 0.0
2017-May-21 23:00N 53°11' E 005°26'0 0.0
2017-May-21 22:30N 53°11' E 005°26'0 0.0
2017-May-21 22:00N 53°11' E 005°26'0 0.0
2017-May-21 21:30N 53°11' E 005°26'0 0.0
2017-May-21 21:00N 53°11' E 005°26'0 0.0
2017-May-21 20:30N 53°11' E 005°26'0 0.0
2017-May-21 20:00N 53°11' E 005°26'0 0.0
2017-May-21 19:30N 53°11' E 005°26'0 0.0
2017-May-21 19:00N 53°11' E 005°26'0 0.0
2017-May-21 18:30N 53°11' E 005°26'0 0.0
2017-May-21 18:00N 53°11' E 005°26'0 0.0
2017-May-21 17:30N 53°11' E 005°26'0 0.0
2017-May-21 17:00N 53°11' E 005°26'0 0.0
2017-May-21 16:30N 53°11' E 005°26'0 0.0
2017-May-21 16:00N 53°11' E 005°26'0 0.2
2017-May-21 15:30N 53°11' E 005°26'0 0.0
2017-May-21 15:00N 53°11' E 005°26'0 0.0
2017-May-21 14:30N 53°11' E 005°26'0 0.0
2017-May-21 13:30N 53°11' E 005°26'0 0.0
2017-May-21 13:00N 53°11' E 005°26'0 0.0
2017-May-21 12:30N 53°11' E 005°26'0 0.0
2017-May-21 12:00N 53°11' E 005°26'0 0.0
2017-May-21 11:30N 53°11' E 005°26'0 0.0
2017-May-21 11:00N 53°11' E 005°26'0 0.0
2017-May-21 10:30N 53°11' E 005°26'0 0.0
2017-May-21 10:00N 53°11' E 005°26'0 0.0
2017-May-21 09:30N 53°11' E 005°26'0 0.0
2017-May-21 09:00N 53°11' E 005°26'0 0.0
2017-May-21 08:30N 53°11' E 005°26'0 0.0
2017-May-21 08:00N 53°11' E 005°26'0 0.0
2017-May-21 07:30N 53°11' E 005°26'0 0.0
2017-May-21 07:00N 53°11' E 005°26'0 0.0
2017-May-21 06:30N 53°11' E 005°26'0 0.0
2017-May-21 06:00N 53°11' E 005°26'0 0.0
2017-May-21 05:30N 53°11' E 005°26'0 0.0
2017-May-21 05:00N 53°11' E 005°26'0 0.0
2017-May-21 04:30N 53°11' E 005°26'0 0.0
2017-May-21 04:00N 53°11' E 005°26'0 0.0
2017-May-21 03:30N 53°11' E 005°26'0 0.0
2017-May-21 03:00N 53°11' E 005°26'0 0.0
2017-May-21 02:30N 53°11' E 005°26'0 0.0
2017-May-21 02:00N 53°11' E 005°26'0 0.0
2017-May-21 01:30N 53°11' E 005°26'0 0.0
2017-May-21 01:00N 53°11' E 005°26'0 0.0
2017-May-21 00:30N 53°11' E 005°26'0 0.0
2017-May-21 00:00N 53°11' E 005°26'0 0.0
2017-May-20 23:30N 53°11' E 005°26'0 0.0
2017-May-20 23:00N 53°11' E 005°26'0 0.0
2017-May-20 22:30N 53°11' E 005°26'0 0.0
2017-May-20 22:00N 53°11' E 005°26'0 0.0
2017-May-20 21:30N 53°11' E 005°26'0 0.0
2017-May-20 21:00N 53°11' E 005°26'0 0.0
2017-May-20 20:30N 53°11' E 005°26'0 0.0
2017-May-20 20:00N 53°11' E 005°26'0 0.0
2017-May-20 19:30N 53°11' E 005°26'0 0.0
2017-May-20 19:00N 53°11' E 005°26'0 0.0
2017-May-20 18:30N 53°11' E 005°26'0 0.0
2017-May-20 18:00N 53°11' E 005°26'0 0.0
2017-May-20 17:30N 53°11' E 005°26'0 0.0
2017-May-20 17:00N 53°11' E 005°26'0 0.0
2017-May-20 16:30N 53°11' E 005°26'0 0.0
2017-May-20 16:00N 53°11' E 005°26'0 0.0
2017-May-20 15:30N 53°11' E 005°26'0 0.0
2017-May-20 15:00N 53°11' E 005°26'0 0.0
2017-May-20 14:00N 53°11' E 005°26'0 0.0
2017-May-20 13:30N 53°11' E 005°26'0 0.0
2017-May-20 13:00N 53°11' E 005°26'0 0.0
2017-May-20 12:30N 53°11' E 005°26'0 0.0
2017-May-20 12:00N 53°11' E 005°26'0 0.0
2017-May-20 11:30N 53°11' E 005°26'0 0.0
2017-May-20 11:00N 53°11' E 005°26'0 0.0
2017-May-20 10:30N 53°11' E 005°26'0 0.0
2017-May-20 10:00N 53°11' E 005°26'0 0.0
2017-May-20 09:30N 53°11' E 005°26'0 0.0
2017-May-20 09:00N 53°11' E 005°26'0 0.0
2017-May-20 08:30N 53°11' E 005°26'0 0.0
2017-May-20 08:00N 53°11' E 005°26'0 0.0
2017-May-20 07:30N 53°11' E 005°26'0 0.0
2017-May-20 07:00N 53°11' E 005°26'0 0.0
2017-May-20 06:30N 53°11' E 005°26'0 0.0
2017-May-20 06:00N 53°11' E 005°26'0 0.0
2017-May-20 05:30N 53°11' E 005°26'0 0.0
2017-May-20 05:00N 53°11' E 005°26'0 0.0
2017-May-20 04:30N 53°11' E 005°26'0 0.0
2017-May-20 04:00N 53°11' E 005°26'0 0.0
2017-May-20 03:30N 53°11' E 005°26'0 0.0
2017-May-20 03:00N 53°11' E 005°26'0 0.0
2017-May-20 02:30N 53°11' E 005°26'0 0.0
2017-May-20 02:00N 53°11' E 005°26'0 0.0
2017-May-20 01:30N 53°11' E 005°26'0 0.0
2017-May-20 01:00N 53°11' E 005°26'0 0.0
2017-May-20 00:30N 53°11' E 005°26'0 0.0
2017-May-20 00:00N 53°11' E 005°26'0 0.0
2017-May-19 23:30N 53°11' E 005°26'0 0.0
2017-May-19 23:00N 53°11' E 005°26'0 0.0
2017-May-19 22:30N 53°11' E 005°26'0 0.0
2017-May-19 22:00N 53°11' E 005°26'0 0.0
2017-May-19 21:30N 53°11' E 005°26'0 0.0
2017-May-19 21:00N 53°11' E 005°26'0 0.0
2017-May-19 20:30N 53°11' E 005°26'0 0.0
2017-May-19 20:00N 53°11' E 005°26'0 0.0
2017-May-19 19:30N 53°11' E 005°26'0 0.0
2017-May-19 19:00N 53°11' E 005°26'0 0.0
2017-May-19 18:30N 53°11' E 005°26'0 0.0
2017-May-19 18:00N 53°11' E 005°26'0 0.0
2017-May-19 17:30N 53°11' E 005°26'0 0.0
2017-May-19 17:00N 53°11' E 005°26'0 0.0
2017-May-19 16:30N 53°11' E 005°26'0 0.0
2017-May-19 16:00N 53°11' E 005°26'0 0.0
2017-May-19 15:30N 53°11' E 005°26'0 0.0
2017-May-19 15:00N 53°11' E 005°26'0 0.0
2017-May-19 14:00N 53°11' E 005°26'0 0.0
2017-May-19 13:30N 53°11' E 005°26'0 0.0
2017-May-19 13:00N 53°11' E 005°26'0 0.0
2017-May-19 12:30N 53°11' E 005°26'0 0.0
2017-May-19 12:00N 53°11' E 005°26'0 0.0
2017-May-19 11:30N 53°11' E 005°26'0 0.0
2017-May-19 11:00N 53°11' E 005°26'0 0.0
2017-May-19 10:30N 53°11' E 005°26'0 0.0
2017-May-19 10:00N 53°11' E 005°26'0 0.0
2017-May-19 09:30N 53°11' E 005°26'0 0.0
2017-May-19 09:00N 53°11' E 005°26'0 0.0
2017-May-19 08:30N 53°11' E 005°26'0 0.1
2017-May-19 08:00N 53°11' E 005°26'2 4.9
2017-May-19 07:30N 53°11' E 005°21'5 9.1
2017-May-19 07:01N 53°14' E 005°16'4 8.2
2017-May-19 06:30N 53°16' E 005°10'4 7.6
2017-May-19 06:00N 53°19' E 005°06'3 6.9
2017-May-19 05:31N 53°19' E 005°01'4 6.8
2017-May-19 04:53N 53°19' E 004°54'3 6.9
2017-May-19 04:29N 53°18' E 004°49'3 5.2
2017-May-19 04:00N 53°18' E 004°45'4 6.9
2017-May-19 03:30N 53°20' E 004°41'4 6.9
2017-May-19 02:59N 53°22' E 004°36'3 6.3
2017-May-19 02:30N 53°25' E 004°34'4 8.0
2017-May-19 01:59N 53°28' E 004°38'5 8.7
2017-May-19 01:28N 53°30' E 004°45'80 7.0
2017-May-18 14:00N 53°22' E 006°59'3 5.9
2017-May-18 13:30N 53°19' E 006°58'2 3.0
2017-May-18 13:00N 53°20' E 006°56'0 0.2
2017-May-18 12:30N 53°20' E 006°56'0 0.2
2017-May-18 12:00N 53°20' E 006°56'0 0.0
2017-May-18 11:29N 53°20' E 006°56'0 0.0
2017-May-18 10:59N 53°20' E 006°56'0 0.0
2017-May-18 10:28N 53°20' E 006°56'0 0.0
2017-May-18 09:58N 53°20' E 006°56'0 0.0
2017-May-18 08:24N 53°20' E 006°56'0 0.0
2017-May-18 08:00N 53°20' E 006°56'0 0.0
2017-May-18 07:30N 53°20' E 006°56'0 0.0
2017-May-18 07:00N 53°20' E 006°56'0 0.1
2017-May-18 06:28N 53°20' E 006°56'0 0.0
2017-May-18 06:00N 53°20' E 006°56'0 0.0
2017-May-18 05:30N 53°20' E 006°56'0 0.0
2017-May-18 05:00N 53°20' E 006°56'0 0.0
2017-May-18 04:30N 53°20' E 006°56'0 0.0
2017-May-18 04:00N 53°20' E 006°56'0 0.0
2017-May-18 03:29N 53°20' E 006°56'0 0.0
2017-May-18 02:59N 53°20' E 006°56'0 0.0
2017-May-18 02:29N 53°20' E 006°56'  
Track history (hours):
 
Tides and Currents Weather Stations Pressure Air Temp Water Temp Dewpoint Dewpoint Depression Visibility Wind Speed Wind Dir Waves Ship Positions

Cathma

Last reported at 2017-May-28 02:00 UTC. Time now 2017-May-29 09:40 UTC.
Position N 60°17' E 019°02'.

Length 111 m; draft 6.3 m.

Type: Ship. MMSI: 306832000.

Date/timePositionNaut miles runAvg speedWind from/ knotsBaromVisibWave heightAir tempDewpointWater temp
2017-May-28 02:00N 60°17' E 019°02'4 8.7
2017-May-28 01:30N 60°13' E 019°04'4 8.5
2017-May-28 01:00N 60°10' E 019°09'4 8.8
2017-May-28 00:30N 60°06' E 019°14'4 8.8
2017-May-28 00:00N 60°03' E 019°20'4 8.8
2017-May-27 23:30N 59°59' E 019°25'4 9.0
2017-May-27 23:00N 59°56' E 019°31'4 8.8
2017-May-27 22:31N 59°53' E 019°36'4 8.7
2017-May-27 22:00N 59°49' E 019°42'5 8.6
2017-May-27 21:29N 59°46' E 019°48'5 8.8
2017-May-27 20:56N 59°42' E 019°54'228 8.0
2017-May-26 16:28N 56°15' E 016°56'6 7.9
2017-May-26 15:42N 56°10' E 016°51'1 7.9
2017-May-26 15:30N 56°08' E 016°50'4 7.6
2017-May-26 15:00N 56°05' E 016°47'8 7.6
2017-May-26 14:00N 56°01' E 016°35'4 7.6
2017-May-26 13:30N 55°59' E 016°29'4 7.6
2017-May-26 13:01N 55°57' E 016°24'4 7.4
2017-May-26 12:31N 55°55' E 016°18'3 6.5
2017-May-26 12:01N 55°54' E 016°13'4 8.5
2017-May-26 11:31N 55°51' E 016°06'5 9.5
2017-May-26 11:00N 55°49' E 015°59'5 9.6
2017-May-26 10:31N 55°47' E 015°51'5 9.7
2017-May-26 10:01N 55°44' E 015°44'5 9.8
2017-May-26 09:31N 55°42' E 015°36'5 9.7
2017-May-26 09:01N 55°40' E 015°29'5 9.7
2017-May-26 08:30N 55°37' E 015°21'5 9.9
2017-May-26 08:01N 55°35' E 015°14'5 9.9
2017-May-26 07:31N 55°32' E 015°06'510.0
2017-May-26 07:00N 55°30' E 014°58'510.1
2017-May-26 06:30N 55°27' E 014°51'510.0
2017-May-26 06:00N 55°25' E 014°43'510.7
2017-May-26 05:30N 55°21' E 014°36'510.9
2017-May-26 05:00N 55°17' E 014°29'510.5
2017-May-26 04:30N 55°13' E 014°24'5 9.9
2017-May-26 04:00N 55°11' E 014°16'4710.5
2017-May-25 23:33N 55°15' E 012°54'110.6
2017-May-25 23:30N 55°15' E 012°53'510.6
2017-May-25 23:00N 55°17' E 012°44'5 9.4
2017-May-25 22:31N 55°19' E 012°38'510.3
2017-May-25 22:01N 55°25' E 012°40'510.4
2017-May-25 21:31N 55°30' E 012°41'510.5
2017-May-25 21:01N 55°35' E 012°42'510.8
2017-May-25 20:31N 55°40' E 012°41'510.7
2017-May-25 20:01N 55°46' E 012°42'510.6
2017-May-25 19:31N 55°51' E 012°41'510.3
2017-May-25 19:01N 55°56' E 012°38'510.8
2017-May-25 18:31N 56°01' E 012°38'510.2
2017-May-25 18:01N 56°06' E 012°34'611.3
2017-May-25 17:31N 56°09' E 012°26'510.9
2017-May-25 17:01N 56°12' E 012°18'3810.4
2017-May-25 13:23N 56°47' E 011°51'411.0
2017-May-25 13:00N 56°51' E 011°48'510.7
2017-May-25 12:31N 56°56' E 011°45'610.7
2017-May-25 11:59N 57°01' E 011°42'510.8
2017-May-25 11:30N 57°06' E 011°38'710.2
2017-May-25 10:49N 57°12' E 011°34'310.7
2017-May-25 10:30N 57°16' E 011°32'610.9
2017-May-25 10:00N 57°21' E 011°29'511.0
2017-May-25 09:30N 57°26' E 011°25'510.1
2017-May-25 09:00N 57°30' E 011°19'510.1
2017-May-25 08:30N 57°33' E 011°12'5 9.9
2017-May-25 08:00N 57°37' E 011°06'510.4
2017-May-25 07:29N 57°40' E 010°58'510.9
2017-May-25 07:01N 57°44' E 010°51'611.0
2017-May-25 06:30N 57°47' E 010°42'612.2
2017-May-25 06:00N 57°47' E 010°31'1511.3
2017-May-25 04:42N 57°41' E 010°05'411.3
2017-May-25 04:22N 57°40' E 009°58'711.3
2017-May-25 03:42N 57°36' E 009°46'1111.1
2017-May-25 02:41N 57°30' E 009°28'310.9
2017-May-25 02:27N 57°29' E 009°24'510.7
2017-May-25 02:00N 57°27' E 009°16'710.6
2017-May-25 01:22N 57°23' E 009°06'132 9.9
2017-May-24 12:02N 55°37' E 006°44'210.8
2017-May-24 11:49N 55°35' E 006°42'510.8
2017-May-24 11:21N 55°31' E 006°37'10110.9
2017-May-24 02:01N 54°04' E 005°07'0 9.5
2017-May-24 01:58N 54°03' E 005°07'510.5
2017-May-24 01:30N 53°59' E 005°04'510.5
2017-May-24 01:00N 53°54' E 005°01'510.3
2017-May-24 00:29N 53°49' E 004°58'510.4
2017-May-24 00:01N 53°44' E 004°55'2110.1
2017-May-23 21:55N 53°24' E 004°42'4 9.5
2017-May-23 21:30N 53°21' E 004°41'1010.5
2017-May-23 20:35N 53°19' E 004°57'110.8
2017-May-23 20:29N 53°19' E 004°58'611.0
2017-May-23 19:59N 53°19' E 005°08'4 9.3
2017-May-23 19:30N 53°15' E 005°10'510.0
2017-May-23 19:00N 53°13' E 005°17'4 8.8
2017-May-23 18:30N 53°11' E 005°23'1 2.6
2017-May-23 18:00N 53°11' E 005°26'0 0.0
2017-May-23 17:30N 53°11' E 005°26'0 0.0
2017-May-23 16:57N 53°11' E 005°26'0 0.0
2017-May-23 16:30N 53°11' E 005°26'0 0.0
2017-May-23 16:00N 53°11' E 005°26'0 0.3
2017-May-23 15:30N 53°11' E 005°26'0 0.3
2017-May-23 14:59N 53°11' E 005°26'0 0.0
2017-May-23 14:29N 53°11' E 005°26'0 0.0
2017-May-23 13:29N 53°11' E 005°26'0 0.0
2017-May-23 12:59N 53°11' E 005°26'0 0.0
2017-May-23 12:28N 53°11' E 005°26'0 0.0
2017-May-23 11:58N 53°11' E 005°26'0 0.0
2017-May-23 11:28N 53°11' E 005°26'0 0.0
2017-May-23 10:58N 53°11' E 005°26'0 0.0
2017-May-23 10:30N 53°11' E 005°26'0 0.0
2017-May-23 10:00N 53°11' E 005°26'0 0.0
2017-May-23 09:30N 53°11' E 005°26'0 0.0
2017-May-23 09:00N 53°11' E 005°26'0 0.0
2017-May-23 08:29N 53°11' E 005°26'0 0.0
2017-May-23 07:59N 53°11' E 005°26'0 0.0
2017-May-23 07:29N 53°11' E 005°26'0 0.0
2017-May-23 06:59N 53°11' E 005°26'0 0.0
2017-May-23 06:29N 53°11' E 005°26'0 0.0
2017-May-23 06:00N 53°11' E 005°26'0 0.0
2017-May-23 05:30N 53°11' E 005°26'0 0.0
2017-May-23 05:00N 53°11' E 005°26'0 0.0
2017-May-23 04:30N 53°11' E 005°26'0 0.0
2017-May-23 04:00N 53°11' E 005°26'0 0.0
2017-May-23 03:30N 53°11' E 005°26'0 0.0
2017-May-23 03:00N 53°11' E 005°26'0 0.0
2017-May-23 02:30N 53°11' E 005°26'0 0.0
2017-May-23 02:00N 53°11' E 005°26'0 0.0
2017-May-23 01:30N 53°11' E 005°26'0 0.0
2017-May-23 01:00N 53°11' E 005°26'0 0.0
2017-May-23 00:30N 53°11' E 005°26'0 0.0
2017-May-23 00:00N 53°11' E 005°26'0 0.0
2017-May-22 23:30N 53°11' E 005°26'0 0.0
2017-May-22 23:00N 53°11' E 005°26'0 0.0
2017-May-22 22:30N 53°11' E 005°26'0 0.0
2017-May-22 22:00N 53°11' E 005°26'0 0.0
2017-May-22 21:30N 53°11' E 005°26'0 0.0
2017-May-22 21:00N 53°11' E 005°26'0 0.0
2017-May-22 20:30N 53°11' E 005°26'0 0.0
2017-May-22 20:00N 53°11' E 005°26'0 0.0
2017-May-22 19:30N 53°11' E 005°26'0 0.0
2017-May-22 19:00N 53°11' E 005°26'0 0.0
2017-May-22 18:30N 53°11' E 005°26'0 0.0
2017-May-22 18:00N 53°11' E 005°26'0 0.0
2017-May-22 17:30N 53°11' E 005°26'0 0.0
2017-May-22 17:00N 53°11' E 005°26'0 0.1
2017-May-22 16:30N 53°11' E 005°26'0 0.1
2017-May-22 16:00N 53°11' E 005°26'0 0.0
2017-May-22 15:30N 53°11' E 005°26'0 0.0
2017-May-22 15:00N 53°11' E 005°26'0 0.0
2017-May-22 14:00N 53°11' E 005°26'0 0.0
2017-May-22 13:30N 53°11' E 005°26'0 0.0
2017-May-22 13:00N 53°11' E 005°26'0 0.0
2017-May-22 12:30N 53°11' E 005°26'0 0.0
2017-May-22 12:00N 53°11' E 005°26'0 0.0
2017-May-22 11:30N 53°11' E 005°26'0 0.0
2017-May-22 11:00N 53°11' E 005°26'0 0.0
2017-May-22 10:30N 53°11' E 005°26'0 0.0
2017-May-22 10:00N 53°11' E 005°26'0 0.0
2017-May-22 09:30N 53°11' E 005°26'0 0.0
2017-May-22 09:00N 53°11' E 005°26'0 0.0
2017-May-22 08:30N 53°11' E 005°26'0 0.0
2017-May-22 08:00N 53°11' E 005°26'0 0.0
2017-May-22 07:30N 53°11' E 005°26'0 0.0
2017-May-22 07:00N 53°11' E 005°26'0 0.0
2017-May-22 06:30N 53°11' E 005°26'0 0.2
2017-May-22 06:00N 53°11' E 005°26'0 0.0
2017-May-22 05:30N 53°11' E 005°26'0 0.0
2017-May-22 05:00N 53°11' E 005°26'0 0.0
2017-May-22 04:30N 53°11' E 005°26'0 0.0
2017-May-22 04:00N 53°11' E 005°26'0 0.0
2017-May-22 03:30N 53°11' E 005°26'0 0.0
2017-May-22 03:00N 53°11' E 005°26'0 0.0
2017-May-22 02:30N 53°11' E 005°26'0 0.0
2017-May-22 02:00N 53°11' E 005°26'0 0.0
2017-May-22 01:30N 53°11' E 005°26'0 0.0
2017-May-22 01:00N 53°11' E 005°26'0 0.0
2017-May-22 00:30N 53°11' E 005°26'0 0.0
2017-May-22 00:00N 53°11' E 005°26'0 0.0
2017-May-21 23:30N 53°11' E 005°26'0 0.0
2017-May-21 23:00N 53°11' E 005°26'0 0.0
2017-May-21 22:30N 53°11' E 005°26'0 0.0
2017-May-21 22:00N 53°11' E 005°26'0 0.0
2017-May-21 21:30N 53°11' E 005°26'0 0.0
2017-May-21 21:00N 53°11' E 005°26'0 0.0
2017-May-21 20:30N 53°11' E 005°26'0 0.0
2017-May-21 20:00N 53°11' E 005°26'0 0.0
2017-May-21 19:30N 53°11' E 005°26'0 0.0
2017-May-21 19:00N 53°11' E 005°26'0 0.0
2017-May-21 18:30N 53°11' E 005°26'0 0.0
2017-May-21 18:00N 53°11' E 005°26'0 0.0
2017-May-21 17:30N 53°11' E 005°26'0 0.0
2017-May-21 17:00N 53°11' E 005°26'0 0.0
2017-May-21 16:30N 53°11' E 005°26'0 0.0
2017-May-21 16:00N 53°11' E 005°26'0 0.2
2017-May-21 15:30N 53°11' E 005°26'0 0.0
2017-May-21 15:00N 53°11' E 005°26'0 0.0
2017-May-21 14:30N 53°11' E 005°26'0 0.0
2017-May-21 13:30N 53°11' E 005°26'0 0.0
2017-May-21 13:00N 53°11' E 005°26'0 0.0
2017-May-21 12:30N 53°11' E 005°26'0 0.0
2017-May-21 12:00N 53°11' E 005°26'0 0.0
2017-May-21 11:30N 53°11' E 005°26'0 0.0
2017-May-21 11:00N 53°11' E 005°26'0 0.0
2017-May-21 10:30N 53°11' E 005°26'0 0.0
2017-May-21 10:00N 53°11' E 005°26'0 0.0
2017-May-21 09:30N 53°11' E 005°26'0 0.0
2017-May-21 09:00N 53°11' E 005°26'0 0.0
2017-May-21 08:30N 53°11' E 005°26'0 0.0
2017-May-21 08:00N 53°11' E 005°26'0 0.0
2017-May-21 07:30N 53°11' E 005°26'0 0.0
2017-May-21 07:00N 53°11' E 005°26'0 0.0
2017-May-21 06:30N 53°11' E 005°26'0 0.0
2017-May-21 06:00N 53°11' E 005°26'0 0.0
2017-May-21 05:30N 53°11' E 005°26'0 0.0
2017-May-21 05:00N 53°11' E 005°26'0 0.0
2017-May-21 04:30N 53°11' E 005°26'0 0.0
2017-May-21 04:00N 53°11' E 005°26'0 0.0
2017-May-21 03:30N 53°11' E 005°26'0 0.0
2017-May-21 03:00N 53°11' E 005°26'0 0.0
2017-May-21 02:30N 53°11' E 005°26'0 0.0
2017-May-21 02:00N 53°11' E 005°26'0 0.0
2017-May-21 01:30N 53°11' E 005°26'0 0.0
2017-May-21 01:00N 53°11' E 005°26'0 0.0
2017-May-21 00:30N 53°11' E 005°26'0 0.0
2017-May-21 00:00N 53°11' E 005°26'0 0.0
2017-May-20 23:30N 53°11' E 005°26'0 0.0
2017-May-20 23:00N 53°11' E 005°26'0 0.0
2017-May-20 22:30N 53°11' E 005°26'0 0.0
2017-May-20 22:00N 53°11' E 005°26'0 0.0
2017-May-20 21:30N 53°11' E 005°26'0 0.0
2017-May-20 21:00N 53°11' E 005°26'0 0.0
2017-May-20 20:30N 53°11' E 005°26'0 0.0
2017-May-20 20:00N 53°11' E 005°26'0 0.0
2017-May-20 19:30N 53°11' E 005°26'0 0.0
2017-May-20 19:00N 53°11' E 005°26'0 0.0
2017-May-20 18:30N 53°11' E 005°26'0 0.0
2017-May-20 18:00N 53°11' E 005°26'0 0.0
2017-May-20 17:30N 53°11' E 005°26'0 0.0
2017-May-20 17:00N 53°11' E 005°26'0 0.0
2017-May-20 16:30N 53°11' E 005°26'0 0.0
2017-May-20 16:00N 53°11' E 005°26'0 0.0
2017-May-20 15:30N 53°11' E 005°26'0 0.0
2017-May-20 15:00N 53°11' E 005°26'0 0.0
2017-May-20 14:00N 53°11' E 005°26'0 0.0
2017-May-20 13:30N 53°11' E 005°26'0 0.0
2017-May-20 13:00N 53°11' E 005°26'0 0.0
2017-May-20 12:30N 53°11' E 005°26'0 0.0
2017-May-20 12:00N 53°11' E 005°26'0 0.0
2017-May-20 11:30N 53°11' E 005°26'0 0.0
2017-May-20 11:00N 53°11' E 005°26'0 0.0
2017-May-20 10:30N 53°11' E 005°26'0 0.0
2017-May-20 10:00N 53°11' E 005°26'0 0.0
2017-May-20 09:30N 53°11' E 005°26'0 0.0
2017-May-20 09:00N 53°11' E 005°26'0 0.0
2017-May-20 08:30N 53°11' E 005°26'0 0.0
2017-May-20 08:00N 53°11' E 005°26'0 0.0
2017-May-20 07:30N 53°11' E 005°26'0 0.0
2017-May-20 07:00N 53°11' E 005°26'0 0.0
2017-May-20 06:30N 53°11' E 005°26'0 0.0
2017-May-20 06:00N 53°11' E 005°26'0 0.0
2017-May-20 05:30N 53°11' E 005°26'0 0.0
2017-May-20 05:00N 53°11' E 005°26'0 0.0
2017-May-20 04:30N 53°11' E 005°26'0 0.0
2017-May-20 04:00N 53°11' E 005°26'0 0.0
2017-May-20 03:30N 53°11' E 005°26'0 0.0
2017-May-20 03:00N 53°11' E 005°26'0 0.0
2017-May-20 02:30N 53°11' E 005°26'0 0.0
2017-May-20 02:00N 53°11' E 005°26'0 0.0
2017-May-20 01:30N 53°11' E 005°26'0 0.0
2017-May-20 01:00N 53°11' E 005°26'0 0.0
2017-May-20 00:30N 53°11' E 005°26'0 0.0
2017-May-20 00:00N 53°11' E 005°26'0 0.0
2017-May-19 23:30N 53°11' E 005°26'0 0.0
2017-May-19 23:00N 53°11' E 005°26'0 0.0
2017-May-19 22:30N 53°11' E 005°26'0 0.0
2017-May-19 22:00N 53°11' E 005°26'0 0.0
2017-May-19 21:30N 53°11' E 005°26'0 0.0
2017-May-19 21:00N 53°11' E 005°26'0 0.0
2017-May-19 20:30N 53°11' E 005°26'0 0.0
2017-May-19 20:00N 53°11' E 005°26'0 0.0
2017-May-19 19:30N 53°11' E 005°26'0 0.0
2017-May-19 19:00N 53°11' E 005°26'0 0.0
2017-May-19 18:30N 53°11' E 005°26'0 0.0
2017-May-19 18:00N 53°11' E 005°26'0 0.0
2017-May-19 17:30N 53°11' E 005°26'0 0.0
2017-May-19 17:00N 53°11' E 005°26'0 0.0
2017-May-19 16:30N 53°11' E 005°26'0 0.0
2017-May-19 16:00N 53°11' E 005°26'0 0.0
2017-May-19 15:30N 53°11' E 005°26'0 0.0
2017-May-19 15:00N 53°11' E 005°26'0 0.0
2017-May-19 14:00N 53°11' E 005°26'0 0.0
2017-May-19 13:30N 53°11' E 005°26'0 0.0
2017-May-19 13:00N 53°11' E 005°26'0 0.0
2017-May-19 12:30N 53°11' E 005°26'0 0.0
2017-May-19 12:00N 53°11' E 005°26'0 0.0
2017-May-19 11:30N 53°11' E 005°26'0 0.0
2017-May-19 11:00N 53°11' E 005°26'0 0.0
2017-May-19 10:30N 53°11' E 005°26'0 0.0
2017-May-19 10:00N 53°11' E 005°26'0 0.0
2017-May-19 09:30N 53°11' E 005°26'0 0.0
2017-May-19 09:00N 53°11' E 005°26'0 0.0
2017-May-19 08:30N 53°11' E 005°26'0 0.1
2017-May-19 08:00N 53°11' E 005°26'2 4.9
2017-May-19 07:30N 53°11' E 005°21'5 9.1
2017-May-19 07:01N 53°14' E 005°16'4 8.2
2017-May-19 06:30N 53°16' E 005°10'4 7.6
2017-May-19 06:00N 53°19' E 005°06'3 6.9
2017-May-19 05:31N 53°19' E 005°01'4 6.8
2017-May-19 04:53N 53°19' E 004°54'3 6.9
2017-May-19 04:29N 53°18' E 004°49'3 5.2
2017-May-19 04:00N 53°18' E 004°45'4 6.9
2017-May-19 03:30N 53°20' E 004°41'4 6.9
2017-May-19 02:59N 53°22' E 004°36'3 6.3
2017-May-19 02:30N 53°25' E 004°34'4 8.0
2017-May-19 01:59N 53°28' E 004°38'5 8.7
2017-May-19 01:28N 53°30' E 004°45'80 7.0
2017-May-18 14:00N 53°22' E 006°59'3 5.9
2017-May-18 13:30N 53°19' E 006°58'2 3.0
2017-May-18 13:00N 53°20' E 006°56'0 0.2
2017-May-18 12:30N 53°20' E 006°56'0 0.2
2017-May-18 12:00N 53°20' E 006°56'0 0.0
2017-May-18 11:29N 53°20' E 006°56'0 0.0
2017-May-18 10:59N 53°20' E 006°56'0 0.0
2017-May-18 10:28N 53°20' E 006°56'0 0.0
2017-May-18 09:58N 53°20' E 006°56'0 0.0
2017-May-18 08:24N 53°20' E 006°56'0 0.0
2017-May-18 08:00N 53°20' E 006°56'0 0.0
2017-May-18 07:30N 53°20' E 006°56'0 0.0
2017-May-18 07:00N 53°20' E 006°56'0 0.1
2017-May-18 06:28N 53°20' E 006°56'0 0.0
2017-May-18 06:00N 53°20' E 006°56'0 0.0
2017-May-18 05:30N 53°20' E 006°56'0 0.0
2017-May-18 05:00N 53°20' E 006°56'0 0.0
2017-May-18 04:30N 53°20' E 006°56'0 0.0
2017-May-18 04:00N 53°20' E 006°56'0 0.0
2017-May-18 03:29N 53°20' E 006°56'0 0.0
2017-May-18 02:59N 53°20' E 006°56'0 0.0
2017-May-18 02:29N 53°20' E 006°56'  

Dump ship's entire track history